Caribbean Princess — ZCDG8 — position and weather

sailwx.info

Track history (hours):
 
Tides and Currents Weather Stations Pressure Air Temp Water Temp Dewpoint Dewpoint Depression Visibility Wind Speed Wind Dir Waves Ship Positions

Caribbean Princess

Operator: Princess Cruises

Last reported at 2015-Jul-28 19:31 UTC. Time now 2015-Jul-29 15:53 UTC.
Position N 36°32' W 002°02'.

Type: Passenger vessel. MMSI: 310423000.

Date/timePositionNaut miles runAvg speedWind from/ knotsBaromVisibWave heightAir tempDewpointWater temp
2015-Jul-28 19:31N 36°32' W 002°02'3618.4
2015-Jul-28 17:33N 36°56' W 001°28'2219.4
2015-Jul-28 16:24N 37°11' W 001°07'1619.6
2015-Jul-28 15:34N 37°22' W 000°52'2019.6
2015-Jul-28 14:33N 37°35' W 000°33'1919.4
2015-Jul-28 13:33N 37°51' W 000°20'17519.4
2015-Jul-28 04:32N 40°11' E 001°55'2019.2
2015-Jul-28 03:30N 40°27' E 002°12'1919.0
2015-Jul-28 02:29N 40°42' E 002°28'9691965.7
2015-Jul-28 02:00N 56°48' E 004°06'9542163.3 180 / 161017.8 5.4 1.020.016.716.0
2015-Jul-28 01:33N 40°55' E 002°43'10219.3
2015-Jul-27 20:17N 42°14' E 004°09'1419.4
2015-Jul-27 19:33N 42°25' E 004°22'1919.4
2015-Jul-27 18:33N 42°40' E 004°38'2020.1
2015-Jul-27 17:33N 42°55' E 004°55'1919.4
2015-Jul-27 16:33N 43°12' E 005°09'1211.4
2015-Jul-27 15:32N 43°21' E 005°19'1 0.1
2015-Jul-27 07:25N 43°21' E 005°20'0 0.0
2015-Jul-27 06:25N 43°21' E 005°20'1 1.0
2015-Jul-27 05:22N 43°21' E 005°18'6 7.7
2015-Jul-27 04:33N 43°17' E 005°12'1312.7
2015-Jul-27 03:33N 43°04' E 005°13'1414.0
2015-Jul-27 02:33N 42°56' E 005°29'1414.1
2015-Jul-27 01:33N 42°49' E 005°46'1818.0
2015-Jul-27 00:33N 42°47' E 006°10'1616.1
2015-Jul-26 23:33N 42°46' E 006°32'1818.1
2015-Jul-26 22:34N 42°58' E 006°51'1817.5
2015-Jul-26 21:33N 43°10' E 007°09'2017.2
2015-Jul-26 20:23N 43°23' E 007°30'5818.3
2015-Jul-26 17:14N 44°01' E 008°30'1217.7
2015-Jul-26 16:33N 44°09' E 008°43'1616.4
2015-Jul-26 15:33N 44°22' E 008°57'3 3.4
2015-Jul-26 14:33N 44°25' E 008°55'0 0.0
2015-Jul-26 13:33N 44°25' E 008°55'0 0.0
2015-Jul-26 12:29N 44°25' E 008°55'0 0.0
2015-Jul-26 11:29N 44°25' E 008°55'0 0.0
2015-Jul-26 10:29N 44°25' E 008°55'0 0.0
2015-Jul-26 09:29N 44°25' E 008°55'0 0.0
2015-Jul-26 08:29N 44°25' E 008°55'0 0.0
2015-Jul-26 07:29N 44°25' E 008°55'0 0.0
2015-Jul-26 06:32N 44°25' E 008°55'0 0.0
2015-Jul-26 05:32N 44°25' E 008°55'0 0.3
2015-Jul-26 04:33N 44°24' E 008°55'6 5.7
2015-Jul-26 03:33N 44°20' E 008°59'1313.2
2015-Jul-26 02:33N 44°06' E 008°59'1312.9
2015-Jul-26 01:31N 43°53' E 008°60'60 3.5
2015-Jul-25 08:32N 43°33' E 010°18'0 0.0
2015-Jul-25 07:23N 43°33' E 010°18'0 0.0
2015-Jul-25 06:29N 43°33' E 010°18'0 0.0
2015-Jul-25 05:32N 43°33' E 010°18'1 0.6
2015-Jul-25 04:34N 43°33' E 010°17'6 6.4
2015-Jul-25 03:33N 43°27' E 010°12'1313.3
2015-Jul-25 02:33N 43°14' E 010°09'1413.3
2015-Jul-25 01:32N 43°01' E 010°08'83 3.6
2015-Jul-24 02:14N 41°58' E 011°20'1218.3
2015-Jul-24 01:33N 41°53' E 011°05'1818.4
2015-Jul-24 00:33N 41°46' E 010°42'2019.6
2015-Jul-23 23:33N 41°38' E 010°18'133 6.9
2015-Jul-23 04:18N 41°40' E 007°19'17818.3
2015-Jul-22 18:33N 41°21' E 003°23'1919.2
2015-Jul-22 17:33N 41°20' E 002°57'1919.1
2015-Jul-22 16:33N 41°18' E 002°32'1616.4
2015-Jul-22 15:33N 41°18' E 002°11'4 3.4
2015-Jul-22 14:29N 41°21' E 002°10'0 0.0
2015-Jul-22 13:28N 41°21' E 002°10'0 0.0
2015-Jul-22 12:19N 41°21' E 002°10'0 0.0
2015-Jul-22 11:19N 41°21' E 002°10'0 0.0
2015-Jul-22 10:13N 41°21' E 002°10'0 0.0
2015-Jul-22 09:25N 41°21' E 002°10'0 0.0
2015-Jul-22 08:05N 41°21' E 002°10'0 0.0
2015-Jul-22 07:25N 41°21' E 002°10'0 0.0
2015-Jul-22 06:29N 41°21' E 002°10'0 0.1
2015-Jul-22 05:32N 41°21' E 002°10'6 6.3
2015-Jul-22 04:31N 41°15' E 002°12'1516.1
2015-Jul-22 03:33N 41°01' E 002°03'1716.7
2015-Jul-22 02:33N 40°46' E 001°53'1817.7
2015-Jul-22 01:33N 40°30' E 001°43'2019.8
2015-Jul-22 00:33N 40°12' E 001°32'2020.0
2015-Jul-21 23:33N 39°54' E 001°21'2220.2
2015-Jul-21 22:29N 39°34' E 001°08'2020.1
2015-Jul-21 21:29N 39°16' E 000°57'1919.8
2015-Jul-21 20:33N 38°60' E 000°47'2020.4
2015-Jul-21 19:33N 38°41' E 000°35'2121.0
2015-Jul-21 18:33N 38°24' E 000°20'2121.0
2015-Jul-21 17:33N 38°08' E 000°03'2121.1
2015-Jul-21 16:33N 37°51' W 000°13'2121.3
2015-Jul-21 15:33N 37°34' W 000°30'2120.8
2015-Jul-21 14:33N 37°20' W 000°49'2121.1
2015-Jul-21 13:33N 37°06' W 001°09'2221.2
2015-Jul-21 12:29N 36°51' W 001°30'2021.2
2015-Jul-21 11:31N 36°38' W 001°49'2520.7
2015-Jul-21 10:20N 36°22' W 002°12'26220.1
2015-Jul-20 21:17N 36°07' W 007°37'1621.6
2015-Jul-20 20:33N 36°12' W 007°56'2321.7
2015-Jul-20 19:29N 36°20' W 008°23'2021.6
2015-Jul-20 18:33N 36°27' W 008°46'2221.6
2015-Jul-20 17:33N 36°33' W 009°12'4220.0
2015-Jul-20 15:28N 37°09' W 009°39'2021.7
2015-Jul-20 14:32N 37°29' W 009°45'2121.4
2015-Jul-20 13:33N 37°49' W 009°52'2121.5
2015-Jul-20 12:33N 38°10' W 009°58'2221.6
2015-Jul-20 11:33N 38°31' W 010°03'2121.3
2015-Jul-20 10:34N 38°52' W 010°06'2221.9
2015-Jul-20 09:33N 39°14' W 010°06'70120.5
2015-Jul-18 23:24N 49°52' W 003°17'1821.2
2015-Jul-18 22:34N 50°01' W 002°53'1919.4
2015-Jul-18 21:33N 50°06' W 002°24'1818.3
2015-Jul-18 20:33N 50°14' W 001°59'  
Track history (hours):
 
Tides and Currents Weather Stations Pressure Air Temp Water Temp Dewpoint Dewpoint Depression Visibility Wind Speed Wind Dir Waves Ship Positions

Caribbean Princess

Operator: Princess Cruises

Last reported at 2015-Jul-28 19:31 UTC. Time now 2015-Jul-29 15:53 UTC.
Position N 36°32' W 002°02'.

Type: Passenger vessel. MMSI: 310423000.

Date/timePositionNaut miles runAvg speedWind from/ knotsBaromVisibWave heightAir tempDewpointWater temp
2015-Jul-28 19:31N 36°32' W 002°02'3618.4
2015-Jul-28 17:33N 36°56' W 001°28'2219.4
2015-Jul-28 16:24N 37°11' W 001°07'1619.6
2015-Jul-28 15:34N 37°22' W 000°52'2019.6
2015-Jul-28 14:33N 37°35' W 000°33'1919.4
2015-Jul-28 13:33N 37°51' W 000°20'17519.4
2015-Jul-28 04:32N 40°11' E 001°55'2019.2
2015-Jul-28 03:30N 40°27' E 002°12'1919.0
2015-Jul-28 02:29N 40°42' E 002°28'9691965.7
2015-Jul-28 02:00N 56°48' E 004°06'9542163.3 180 / 161017.8 5.4 1.020.016.716.0
2015-Jul-28 01:33N 40°55' E 002°43'10219.3
2015-Jul-27 20:17N 42°14' E 004°09'1419.4
2015-Jul-27 19:33N 42°25' E 004°22'1919.4
2015-Jul-27 18:33N 42°40' E 004°38'2020.1
2015-Jul-27 17:33N 42°55' E 004°55'1919.4
2015-Jul-27 16:33N 43°12' E 005°09'1211.4
2015-Jul-27 15:32N 43°21' E 005°19'1 0.1
2015-Jul-27 07:25N 43°21' E 005°20'0 0.0
2015-Jul-27 06:25N 43°21' E 005°20'1 1.0
2015-Jul-27 05:22N 43°21' E 005°18'6 7.7
2015-Jul-27 04:33N 43°17' E 005°12'1312.7
2015-Jul-27 03:33N 43°04' E 005°13'1414.0
2015-Jul-27 02:33N 42°56' E 005°29'1414.1
2015-Jul-27 01:33N 42°49' E 005°46'1818.0
2015-Jul-27 00:33N 42°47' E 006°10'1616.1
2015-Jul-26 23:33N 42°46' E 006°32'1818.1
2015-Jul-26 22:34N 42°58' E 006°51'1817.5
2015-Jul-26 21:33N 43°10' E 007°09'2017.2
2015-Jul-26 20:23N 43°23' E 007°30'5818.3
2015-Jul-26 17:14N 44°01' E 008°30'1217.7
2015-Jul-26 16:33N 44°09' E 008°43'1616.4
2015-Jul-26 15:33N 44°22' E 008°57'3 3.4
2015-Jul-26 14:33N 44°25' E 008°55'0 0.0
2015-Jul-26 13:33N 44°25' E 008°55'0 0.0
2015-Jul-26 12:29N 44°25' E 008°55'0 0.0
2015-Jul-26 11:29N 44°25' E 008°55'0 0.0
2015-Jul-26 10:29N 44°25' E 008°55'0 0.0
2015-Jul-26 09:29N 44°25' E 008°55'0 0.0
2015-Jul-26 08:29N 44°25' E 008°55'0 0.0
2015-Jul-26 07:29N 44°25' E 008°55'0 0.0
2015-Jul-26 06:32N 44°25' E 008°55'0 0.0
2015-Jul-26 05:32N 44°25' E 008°55'0 0.3
2015-Jul-26 04:33N 44°24' E 008°55'6 5.7
2015-Jul-26 03:33N 44°20' E 008°59'1313.2
2015-Jul-26 02:33N 44°06' E 008°59'1312.9
2015-Jul-26 01:31N 43°53' E 008°60'60 3.5
2015-Jul-25 08:32N 43°33' E 010°18'0 0.0
2015-Jul-25 07:23N 43°33' E 010°18'0 0.0
2015-Jul-25 06:29N 43°33' E 010°18'0 0.0
2015-Jul-25 05:32N 43°33' E 010°18'1 0.6
2015-Jul-25 04:34N 43°33' E 010°17'6 6.4
2015-Jul-25 03:33N 43°27' E 010°12'1313.3
2015-Jul-25 02:33N 43°14' E 010°09'1413.3
2015-Jul-25 01:32N 43°01' E 010°08'83 3.6
2015-Jul-24 02:14N 41°58' E 011°20'1218.3
2015-Jul-24 01:33N 41°53' E 011°05'1818.4
2015-Jul-24 00:33N 41°46' E 010°42'2019.6
2015-Jul-23 23:33N 41°38' E 010°18'133 6.9
2015-Jul-23 04:18N 41°40' E 007°19'17818.3
2015-Jul-22 18:33N 41°21' E 003°23'1919.2
2015-Jul-22 17:33N 41°20' E 002°57'1919.1
2015-Jul-22 16:33N 41°18' E 002°32'1616.4
2015-Jul-22 15:33N 41°18' E 002°11'4 3.4
2015-Jul-22 14:29N 41°21' E 002°10'0 0.0
2015-Jul-22 13:28N 41°21' E 002°10'0 0.0
2015-Jul-22 12:19N 41°21' E 002°10'0 0.0
2015-Jul-22 11:19N 41°21' E 002°10'0 0.0
2015-Jul-22 10:13N 41°21' E 002°10'0 0.0
2015-Jul-22 09:25N 41°21' E 002°10'0 0.0
2015-Jul-22 08:05N 41°21' E 002°10'0 0.0
2015-Jul-22 07:25N 41°21' E 002°10'0 0.0
2015-Jul-22 06:29N 41°21' E 002°10'0 0.1
2015-Jul-22 05:32N 41°21' E 002°10'6 6.3
2015-Jul-22 04:31N 41°15' E 002°12'1516.1
2015-Jul-22 03:33N 41°01' E 002°03'1716.7
2015-Jul-22 02:33N 40°46' E 001°53'1817.7
2015-Jul-22 01:33N 40°30' E 001°43'2019.8
2015-Jul-22 00:33N 40°12' E 001°32'2020.0
2015-Jul-21 23:33N 39°54' E 001°21'2220.2
2015-Jul-21 22:29N 39°34' E 001°08'2020.1
2015-Jul-21 21:29N 39°16' E 000°57'1919.8
2015-Jul-21 20:33N 38°60' E 000°47'2020.4
2015-Jul-21 19:33N 38°41' E 000°35'2121.0
2015-Jul-21 18:33N 38°24' E 000°20'2121.0
2015-Jul-21 17:33N 38°08' E 000°03'2121.1
2015-Jul-21 16:33N 37°51' W 000°13'2121.3
2015-Jul-21 15:33N 37°34' W 000°30'2120.8
2015-Jul-21 14:33N 37°20' W 000°49'2121.1
2015-Jul-21 13:33N 37°06' W 001°09'2221.2
2015-Jul-21 12:29N 36°51' W 001°30'2021.2
2015-Jul-21 11:31N 36°38' W 001°49'2520.7
2015-Jul-21 10:20N 36°22' W 002°12'26220.1
2015-Jul-20 21:17N 36°07' W 007°37'1621.6
2015-Jul-20 20:33N 36°12' W 007°56'2321.7
2015-Jul-20 19:29N 36°20' W 008°23'2021.6
2015-Jul-20 18:33N 36°27' W 008°46'2221.6
2015-Jul-20 17:33N 36°33' W 009°12'4220.0
2015-Jul-20 15:28N 37°09' W 009°39'2021.7
2015-Jul-20 14:32N 37°29' W 009°45'2121.4
2015-Jul-20 13:33N 37°49' W 009°52'2121.5
2015-Jul-20 12:33N 38°10' W 009°58'2221.6
2015-Jul-20 11:33N 38°31' W 010°03'2121.3
2015-Jul-20 10:34N 38°52' W 010°06'2221.9
2015-Jul-20 09:33N 39°14' W 010°06'70120.5
2015-Jul-18 23:24N 49°52' W 003°17'1821.2
2015-Jul-18 22:34N 50°01' W 002°53'1919.4
2015-Jul-18 21:33N 50°06' W 002°24'1818.3
2015-Jul-18 20:33N 50°14' W 001°59'  

Dump ship's entire track history